sensor_id;sensor_type;location;lat;lon;timestamp;P1;durP1;ratioP1;P2;durP2;ratioP2
10529;SDS011;5313;48.834;9.228;2023-02-14T00:02:19;32.13;;;15.37;;
10529;SDS011;5313;48.834;9.228;2023-02-14T00:04:45;29.53;;;14.03;;
10529;SDS011;5313;48.834;9.228;2023-02-14T00:07:12;28.50;;;14.40;;
10529;SDS011;5313;48.834;9.228;2023-02-14T00:09:38;29.87;;;14.47;;
10529;SDS011;5313;48.834;9.228;2023-02-14T00:12:03;28.93;;;15.33;;
10529;SDS011;5313;48.834;9.228;2023-02-14T00:14:29;29.60;;;14.37;;
10529;SDS011;5313;48.834;9.228;2023-02-14T00:17:13;30.67;;;14.50;;
10529;SDS011;5313;48.834;9.228;2023-02-14T00:19:39;27.53;;;13.87;;
10529;SDS011;5313;48.834;9.228;2023-02-14T00:22:04;30.30;;;14.50;;
10529;SDS011;5313;48.834;9.228;2023-02-14T00:24:30;25.83;;;14.33;;
10529;SDS011;5313;48.834;9.228;2023-02-14T00:26:55;26.57;;;13.60;;
10529;SDS011;5313;48.834;9.228;2023-02-14T00:29:22;30.00;;;15.07;;
10529;SDS011;5313;48.834;9.228;2023-02-14T00:31:50;27.67;;;14.23;;
10529;SDS011;5313;48.834;9.228;2023-02-14T00:34:16;26.43;;;13.53;;
10529;SDS011;5313;48.834;9.228;2023-02-14T00:36:42;29.70;;;14.70;;
10529;SDS011;5313;48.834;9.228;2023-02-14T00:39:09;29.43;;;14.37;;
10529;SDS011;5313;48.834;9.228;2023-02-14T00:41:36;30.07;;;14.43;;
10529;SDS011;5313;48.834;9.228;2023-02-14T00:44:02;27.10;;;15.20;;
10529;SDS011;5313;48.834;9.228;2023-02-14T00:46:28;32.60;;;15.63;;
10529;SDS011;5313;48.834;9.228;2023-02-14T00:48:54;27.40;;;14.43;;
10529;SDS011;5313;48.834;9.228;2023-02-14T00:51:20;31.23;;;14.93;;
10529;SDS011;5313;48.834;9.228;2023-02-14T00:53:46;32.27;;;15.23;;
10529;SDS011;5313;48.834;9.228;2023-02-14T00:56:13;31.80;;;15.77;;
10529;SDS011;5313;48.834;9.228;2023-02-14T00:58:40;27.50;;;14.37;;
10529;SDS011;5313;48.834;9.228;2023-02-14T01:01:06;32.17;;;16.83;;
10529;SDS011;5313;48.834;9.228;2023-02-14T01:03:34;31.30;;;15.37;;
10529;SDS011;5313;48.834;9.228;2023-02-14T01:06:00;29.43;;;15.53;;
10529;SDS011;5313;48.834;9.228;2023-02-14T01:08:25;31.03;;;15.60;;
10529;SDS011;5313;48.834;9.228;2023-02-14T01:10:51;32.93;;;15.13;;
10529;SDS011;5313;48.834;9.228;2023-02-14T01:13:17;29.83;;;15.20;;
10529;SDS011;5313;48.834;9.228;2023-02-14T01:15:44;30.33;;;15.33;;
10529;SDS011;5313;48.834;9.228;2023-02-14T01:18:12;34.53;;;16.60;;
10529;SDS011;5313;48.834;9.228;2023-02-14T01:20:38;28.57;;;14.70;;
10529;SDS011;5313;48.834;9.228;2023-02-14T01:23:04;33.07;;;15.60;;
10529;SDS011;5313;48.834;9.228;2023-02-14T01:25:30;31.53;;;15.97;;
10529;SDS011;5313;48.834;9.228;2023-02-14T01:27:55;32.10;;;16.07;;
10529;SDS011;5313;48.834;9.228;2023-02-14T01:30:21;30.00;;;16.00;;
10529;SDS011;5313;48.834;9.228;2023-02-14T01:32:47;26.70;;;14.17;;
10529;SDS011;5313;48.834;9.228;2023-02-14T01:35:12;32.30;;;15.13;;
10529;SDS011;5313;48.834;9.228;2023-02-14T01:37:38;29.67;;;14.93;;
10529;SDS011;5313;48.834;9.228;2023-02-14T01:40:05;31.07;;;15.70;;
10529;SDS011;5313;48.834;9.228;2023-02-14T01:42:33;29.57;;;15.20;;
10529;SDS011;5313;48.834;9.228;2023-02-14T01:47:36;33.63;;;16.70;;
10529;SDS011;5313;48.834;9.228;2023-02-14T01:50:16;28.50;;;14.63;;
10529;SDS011;5313;48.834;9.228;2023-02-14T01:52:58;29.27;;;16.53;;
10529;SDS011;5313;48.834;9.228;2023-02-14T01:55:34;30.03;;;16.33;;
10529;SDS011;5313;48.834;9.228;2023-02-14T01:58:05;35.10;;;14.87;;
10529;SDS011;5313;48.834;9.228;2023-02-14T02:00:37;27.30;;;15.10;;
10529;SDS011;5313;48.834;9.228;2023-02-14T02:08:37;29.00;;;14.80;;
10529;SDS011;5313;48.834;9.228;2023-02-14T02:11:08;29.97;;;15.17;;
10529;SDS011;5313;48.834;9.228;2023-02-14T02:13:33;27.93;;;14.97;;
10529;SDS011;5313;48.834;9.228;2023-02-14T02:18:58;27.87;;;15.43;;
10529;SDS011;5313;48.834;9.228;2023-02-14T02:24:23;29.13;;;14.53;;
10529;SDS011;5313;48.834;9.228;2023-02-14T02:27:05;28.13;;;15.97;;
10529;SDS011;5313;48.834;9.228;2023-02-14T02:32:49;28.87;;;15.57;;
10529;SDS011;5313;48.834;9.228;2023-02-14T02:35:48;32.70;;;15.13;;
10529;SDS011;5313;48.834;9.228;2023-02-14T02:41:08;32.40;;;15.73;;
10529;SDS011;5313;48.834;9.228;2023-02-14T02:46:39;34.20;;;17.17;;
10529;SDS011;5313;48.834;9.228;2023-02-14T02:55:34;34.77;;;15.83;;
10529;SDS011;5313;48.834;9.228;2023-02-14T02:58:31;35.87;;;16.77;;
10529;SDS011;5313;48.834;9.228;2023-02-14T03:01:01;33.57;;;16.27;;
10529;SDS011;5313;48.834;9.228;2023-02-14T03:03:31;30.97;;;16.20;;
10529;SDS011;5313;48.834;9.228;2023-02-14T03:06:17;28.93;;;15.40;;
10529;SDS011;5313;48.834;9.228;2023-02-14T03:08:42;32.57;;;16.43;;
10529;SDS011;5313;48.834;9.228;2023-02-14T03:11:08;32.63;;;17.13;;
10529;SDS011;5313;48.834;9.228;2023-02-14T03:13:42;30.60;;;16.43;;
10529;SDS011;5313;48.834;9.228;2023-02-14T03:19:01;32.67;;;16.57;;
10529;SDS011;5313;48.834;9.228;2023-02-14T03:27:34;32.77;;;15.97;;
10529;SDS011;5313;48.834;9.228;2023-02-14T03:33:31;28.53;;;14.30;;
10529;SDS011;5313;48.834;9.228;2023-02-14T03:36:19;28.37;;;14.60;;
10529;SDS011;5313;48.834;9.228;2023-02-14T03:38:54;29.97;;;14.13;;
10529;SDS011;5313;48.834;9.228;2023-02-14T03:41:31;24.37;;;13.37;;
10529;SDS011;5313;48.834;9.228;2023-02-14T03:44:06;31.43;;;15.27;;
10529;SDS011;5313;48.834;9.228;2023-02-14T03:46:36;29.40;;;14.80;;
10529;SDS011;5313;48.834;9.228;2023-02-14T03:49:09;30.60;;;14.70;;
10529;SDS011;5313;48.834;9.228;2023-02-14T03:51:38;30.67;;;15.07;;
10529;SDS011;5313;48.834;9.228;2023-02-14T03:54:08;32.13;;;14.63;;
10529;SDS011;5313;48.834;9.228;2023-02-14T03:56:39;31.10;;;15.20;;
10529;SDS011;5313;48.834;9.228;2023-02-14T03:59:12;32.83;;;15.83;;
10529;SDS011;5313;48.834;9.228;2023-02-14T04:04:38;29.20;;;15.90;;
10529;SDS011;5313;48.834;9.228;2023-02-14T04:07:08;31.73;;;15.53;;
10529;SDS011;5313;48.834;9.228;2023-02-14T04:09:38;29.70;;;16.07;;
10529;SDS011;5313;48.834;9.228;2023-02-14T04:12:04;31.83;;;14.80;;
10529;SDS011;5313;48.834;9.228;2023-02-14T04:14:30;29.07;;;14.23;;
10529;SDS011;5313;48.834;9.228;2023-02-14T04:16:55;30.53;;;15.90;;
10529;SDS011;5313;48.834;9.228;2023-02-14T04:19:39;33.53;;;16.70;;
10529;SDS011;5313;48.834;9.228;2023-02-14T04:22:05;32.50;;;15.53;;
10529;SDS011;5313;48.834;9.228;2023-02-14T04:24:30;30.73;;;15.90;;
10529;SDS011;5313;48.834;9.228;2023-02-14T04:26:56;29.00;;;15.40;;
10529;SDS011;5313;48.834;9.228;2023-02-14T04:29:43;33.33;;;15.10;;
10529;SDS011;5313;48.834;9.228;2023-02-14T04:32:12;33.20;;;16.73;;
10529;SDS011;5313;48.834;9.228;2023-02-14T04:34:40;33.50;;;17.03;;
10529;SDS011;5313;48.834;9.228;2023-02-14T04:37:06;31.83;;;15.93;;
10529;SDS011;5313;48.834;9.228;2023-02-14T04:39:32;31.40;;;15.10;;
10529;SDS011;5313;48.834;9.228;2023-02-14T04:41:58;32.50;;;15.97;;
10529;SDS011;5313;48.834;9.228;2023-02-14T04:44:23;31.57;;;15.97;;
10529;SDS011;5313;48.834;9.228;2023-02-14T04:46:49;25.60;;;13.57;;
10529;SDS011;5313;48.834;9.228;2023-02-14T04:49:15;28.93;;;15.40;;
10529;SDS011;5313;48.834;9.228;2023-02-14T04:51:41;31.03;;;16.17;;
10529;SDS011;5313;48.834;9.228;2023-02-14T04:54:07;30.10;;;14.73;;
10529;SDS011;5313;48.834;9.228;2023-02-14T04:56:32;32.47;;;16.00;;
10529;SDS011;5313;48.834;9.228;2023-02-14T04:58:58;33.37;;;16.60;;
10529;SDS011;5313;48.834;9.228;2023-02-14T05:01:24;31.93;;;16.33;;
10529;SDS011;5313;48.834;9.228;2023-02-14T05:03:50;31.07;;;15.97;;
10529;SDS011;5313;48.834;9.228;2023-02-14T05:06:15;30.87;;;15.17;;
10529;SDS011;5313;48.834;9.228;2023-02-14T05:08:41;29.60;;;15.07;;
10529;SDS011;5313;48.834;9.228;2023-02-14T05:11:06;34.90;;;16.80;;
10529;SDS011;5313;48.834;9.228;2023-02-14T05:13:32;35.50;;;16.27;;
10529;SDS011;5313;48.834;9.228;2023-02-14T05:15:57;34.77;;;16.17;;
10529;SDS011;5313;48.834;9.228;2023-02-14T05:18:23;33.13;;;16.37;;
10529;SDS011;5313;48.834;9.228;2023-02-14T05:20:49;31.03;;;15.67;;
10529;SDS011;5313;48.834;9.228;2023-02-14T05:23:15;30.97;;;16.10;;
10529;SDS011;5313;48.834;9.228;2023-02-14T05:25:41;33.93;;;15.13;;
10529;SDS011;5313;48.834;9.228;2023-02-14T05:28:07;28.17;;;14.17;;
10529;SDS011;5313;48.834;9.228;2023-02-14T05:30:34;33.93;;;16.20;;
10529;SDS011;5313;48.834;9.228;2023-02-14T05:33:01;28.67;;;15.10;;
10529;SDS011;5313;48.834;9.228;2023-02-14T05:35:26;34.97;;;15.40;;
10529;SDS011;5313;48.834;9.228;2023-02-14T05:37:52;32.70;;;16.00;;
10529;SDS011;5313;48.834;9.228;2023-02-14T05:40:18;29.60;;;15.30;;
10529;SDS011;5313;48.834;9.228;2023-02-14T05:42:43;30.40;;;14.83;;
10529;SDS011;5313;48.834;9.228;2023-02-14T05:45:09;29.40;;;15.17;;
10529;SDS011;5313;48.834;9.228;2023-02-14T05:47:35;32.87;;;13.97;;
10529;SDS011;5313;48.834;9.228;2023-02-14T05:50:02;35.40;;;15.23;;
10529;SDS011;5313;48.834;9.228;2023-02-14T05:52:28;32.57;;;15.60;;
10529;SDS011;5313;48.834;9.228;2023-02-14T05:54:54;33.70;;;16.17;;
10529;SDS011;5313;48.834;9.228;2023-02-14T05:57:19;31.33;;;15.53;;
10529;SDS011;5313;48.834;9.228;2023-02-14T05:59:45;28.73;;;15.30;;
10529;SDS011;5313;48.834;9.228;2023-02-14T06:02:10;31.17;;;15.43;;
10529;SDS011;5313;48.834;9.228;2023-02-14T06:04:36;29.83;;;14.87;;
10529;SDS011;5313;48.834;9.228;2023-02-14T06:07:01;29.20;;;14.90;;
10529;SDS011;5313;48.834;9.228;2023-02-14T06:09:27;30.17;;;15.47;;
10529;SDS011;5313;48.834;9.228;2023-02-14T06:11:52;27.97;;;15.57;;
10529;SDS011;5313;48.834;9.228;2023-02-14T06:14:18;29.53;;;15.10;;
10529;SDS011;5313;48.834;9.228;2023-02-14T06:16:43;33.20;;;15.30;;
10529;SDS011;5313;48.834;9.228;2023-02-14T06:19:09;32.40;;;16.17;;
10529;SDS011;5313;48.834;9.228;2023-02-14T06:21:34;30.23;;;15.17;;
10529;SDS011;5313;48.834;9.228;2023-02-14T06:24:00;29.70;;;15.77;;
10529;SDS011;5313;48.834;9.228;2023-02-14T06:26:26;30.30;;;15.83;;
10529;SDS011;5313;48.834;9.228;2023-02-14T06:28:55;29.40;;;15.02;;
10529;SDS011;5313;48.834;9.228;2023-02-14T06:31:21;27.75;;;14.43;;
10529;SDS011;5313;48.834;9.228;2023-02-14T06:33:47;31.73;;;16.00;;
10529;SDS011;5313;48.834;9.228;2023-02-14T06:36:13;28.47;;;14.47;;
10529;SDS011;5313;48.834;9.228;2023-02-14T06:38:38;26.93;;;14.47;;
10529;SDS011;5313;48.834;9.228;2023-02-14T06:41:05;31.27;;;15.93;;
10529;SDS011;5313;48.834;9.228;2023-02-14T06:43:32;31.87;;;15.60;;
10529;SDS011;5313;48.834;9.228;2023-02-14T06:45:58;26.30;;;14.30;;
10529;SDS011;5313;48.834;9.228;2023-02-14T06:48:23;33.10;;;16.33;;
10529;SDS011;5313;48.834;9.228;2023-02-14T06:50:49;28.00;;;14.00;;
10529;SDS011;5313;48.834;9.228;2023-02-14T06:53:16;32.33;;;15.17;;
10529;SDS011;5313;48.834;9.228;2023-02-14T06:55:42;27.20;;;14.40;;
10529;SDS011;5313;48.834;9.228;2023-02-14T06:58:07;27.03;;;13.90;;
10529;SDS011;5313;48.834;9.228;2023-02-14T07:00:33;24.97;;;14.03;;
10529;SDS011;5313;48.834;9.228;2023-02-14T07:02:58;27.33;;;13.80;;
10529;SDS011;5313;48.834;9.228;2023-02-14T07:05:24;29.00;;;14.47;;
10529;SDS011;5313;48.834;9.228;2023-02-14T07:07:49;30.10;;;14.80;;
10529;SDS011;5313;48.834;9.228;2023-02-14T07:10:15;27.90;;;15.17;;
10529;SDS011;5313;48.834;9.228;2023-02-14T07:12:40;29.13;;;15.10;;
10529;SDS011;5313;48.834;9.228;2023-02-14T07:15:07;33.47;;;15.57;;
10529;SDS011;5313;48.834;9.228;2023-02-14T07:17:33;26.53;;;14.83;;
10529;SDS011;5313;48.834;9.228;2023-02-14T07:19:59;30.13;;;14.87;;
10529;SDS011;5313;48.834;9.228;2023-02-14T07:22:25;26.30;;;13.97;;
10529;SDS011;5313;48.834;9.228;2023-02-14T07:24:50;24.93;;;14.07;;
10529;SDS011;5313;48.834;9.228;2023-02-14T07:27:16;34.83;;;14.80;;
10529;SDS011;5313;48.834;9.228;2023-02-14T07:29:41;31.10;;;14.90;;
10529;SDS011;5313;48.834;9.228;2023-02-14T07:32:07;29.53;;;14.93;;
10529;SDS011;5313;48.834;9.228;2023-02-14T07:34:33;28.73;;;13.67;;
10529;SDS011;5313;48.834;9.228;2023-02-14T07:36:59;32.07;;;14.80;;
10529;SDS011;5313;48.834;9.228;2023-02-14T07:39:25;28.47;;;15.20;;
10529;SDS011;5313;48.834;9.228;2023-02-14T07:41:51;30.93;;;14.90;;
10529;SDS011;5313;48.834;9.228;2023-02-14T07:44:16;30.37;;;15.80;;
10529;SDS011;5313;48.834;9.228;2023-02-14T07:46:42;30.60;;;14.80;;
10529;SDS011;5313;48.834;9.228;2023-02-14T07:49:07;32.00;;;15.70;;
10529;SDS011;5313;48.834;9.228;2023-02-14T07:51:33;26.63;;;15.30;;
10529;SDS011;5313;48.834;9.228;2023-02-14T07:53:58;33.27;;;15.47;;
10529;SDS011;5313;48.834;9.228;2023-02-14T07:56:24;27.70;;;14.87;;
10529;SDS011;5313;48.834;9.228;2023-02-14T07:58:49;28.23;;;15.70;;
10529;SDS011;5313;48.834;9.228;2023-02-14T08:01:15;28.30;;;14.57;;
10529;SDS011;5313;48.834;9.228;2023-02-14T08:03:41;31.77;;;15.27;;
10529;SDS011;5313;48.834;9.228;2023-02-14T08:06:13;27.77;;;14.97;;
10529;SDS011;5313;48.834;9.228;2023-02-14T08:08:43;29.27;;;15.33;;
10529;SDS011;5313;48.834;9.228;2023-02-14T08:11:09;29.47;;;15.73;;
10529;SDS011;5313;48.834;9.228;2023-02-14T08:13:34;30.63;;;16.27;;
10529;SDS011;5313;48.834;9.228;2023-02-14T08:16:00;26.63;;;15.43;;
10529;SDS011;5313;48.834;9.228;2023-02-14T08:18:28;31.07;;;16.20;;
10529;SDS011;5313;48.834;9.228;2023-02-14T08:20:56;27.77;;;15.17;;
10529;SDS011;5313;48.834;9.228;2023-02-14T08:23:21;32.10;;;16.50;;
10529;SDS011;5313;48.834;9.228;2023-02-14T08:25:47;29.83;;;16.03;;
10529;SDS011;5313;48.834;9.228;2023-02-14T08:28:13;27.23;;;15.43;;
10529;SDS011;5313;48.834;9.228;2023-02-14T08:30:39;32.33;;;15.93;;
10529;SDS011;5313;48.834;9.228;2023-02-14T08:33:06;30.87;;;15.77;;
10529;SDS011;5313;48.834;9.228;2023-02-14T08:35:32;34.03;;;16.13;;
10529;SDS011;5313;48.834;9.228;2023-02-14T08:37:57;30.63;;;16.07;;
10529;SDS011;5313;48.834;9.228;2023-02-14T08:40:23;29.50;;;15.93;;
10529;SDS011;5313;48.834;9.228;2023-02-14T08:42:49;30.33;;;15.03;;
10529;SDS011;5313;48.834;9.228;2023-02-14T08:45:14;29.93;;;15.07;;
10529;SDS011;5313;48.834;9.228;2023-02-14T08:47:40;27.90;;;16.43;;
10529;SDS011;5313;48.834;9.228;2023-02-14T08:50:07;31.13;;;16.07;;
10529;SDS011;5313;48.834;9.228;2023-02-14T08:52:34;30.93;;;16.60;;
10529;SDS011;5313;48.834;9.228;2023-02-14T08:55:00;27.30;;;14.97;;
10529;SDS011;5313;48.834;9.228;2023-02-14T08:57:26;32.17;;;16.70;;
10529;SDS011;5313;48.834;9.228;2023-02-14T08:59:52;29.97;;;15.70;;
10529;SDS011;5313;48.834;9.228;2023-02-14T09:02:18;28.87;;;15.47;;
10529;SDS011;5313;48.834;9.228;2023-02-14T09:04:43;31.53;;;16.20;;
10529;SDS011;5313;48.834;9.228;2023-02-14T09:07:12;30.40;;;16.60;;
10529;SDS011;5313;48.834;9.228;2023-02-14T09:09:37;29.07;;;15.77;;
10529;SDS011;5313;48.834;9.228;2023-02-14T09:12:03;28.73;;;15.50;;
10529;SDS011;5313;48.834;9.228;2023-02-14T09:14:33;28.73;;;16.43;;
10529;SDS011;5313;48.834;9.228;2023-02-14T09:17:02;28.40;;;15.23;;
10529;SDS011;5313;48.834;9.228;2023-02-14T09:19:33;26.17;;;14.73;;
10529;SDS011;5313;48.834;9.228;2023-02-14T09:21:59;27.60;;;15.07;;
10529;SDS011;5313;48.834;9.228;2023-02-14T09:24:27;25.43;;;14.83;;
10529;SDS011;5313;48.834;9.228;2023-02-14T09:26:54;24.27;;;14.37;;
10529;SDS011;5313;48.834;9.228;2023-02-14T09:29:21;25.43;;;14.80;;
10529;SDS011;5313;48.834;9.228;2023-02-14T09:31:46;25.67;;;15.77;;
10529;SDS011;5313;48.834;9.228;2023-02-14T09:34:12;25.03;;;14.50;;
10529;SDS011;5313;48.834;9.228;2023-02-14T09:36:38;25.73;;;14.97;;
10529;SDS011;5313;48.834;9.228;2023-02-14T09:39:22;25.23;;;14.40;;
10529;SDS011;5313;48.834;9.228;2023-02-14T09:44:45;25.10;;;14.30;;
10529;SDS011;5313;48.834;9.228;2023-02-14T09:50:10;24.77;;;14.80;;
10529;SDS011;5313;48.834;9.228;2023-02-14T09:52:51;24.37;;;14.27;;
10529;SDS011;5313;48.834;9.228;2023-02-14T09:55:21;25.17;;;14.33;;
10529;SDS011;5313;48.834;9.228;2023-02-14T10:01:09;23.57;;;14.27;;
10529;SDS011;5313;48.834;9.228;2023-02-14T10:09:25;23.53;;;14.50;;
10529;SDS011;5313;48.834;9.228;2023-02-14T10:12:25;20.93;;;13.30;;
10529;SDS011;5313;48.834;9.228;2023-02-14T10:14:58;22.57;;;13.80;;
10529;SDS011;5313;48.834;9.228;2023-02-14T10:17:39;23.53;;;13.80;;
10529;SDS011;5313;48.834;9.228;2023-02-14T10:25:47;22.93;;;14.33;;
10529;SDS011;5313;48.834;9.228;2023-02-14T10:28:32;23.67;;;14.53;;
10529;SDS011;5313;48.834;9.228;2023-02-14T10:33:51;22.60;;;13.73;;
10529;SDS011;5313;48.834;9.228;2023-02-14T10:36:22;21.50;;;14.00;;
10529;SDS011;5313;48.834;9.228;2023-02-14T10:39:00;23.00;;;14.53;;
10529;SDS011;5313;48.834;9.228;2023-02-14T10:41:38;21.40;;;14.37;;
10529;SDS011;5313;48.834;9.228;2023-02-14T10:49:47;21.43;;;13.07;;
10529;SDS011;5313;48.834;9.228;2023-02-14T10:55:21;17.97;;;12.70;;
10529;SDS011;5313;48.834;9.228;2023-02-14T10:58:01;21.17;;;12.97;;
10529;SDS011;5313;48.834;9.228;2023-02-14T11:00:31;18.87;;;12.60;;
10529;SDS011;5313;48.834;9.228;2023-02-14T11:02:59;18.70;;;12.63;;
10529;SDS011;5313;48.834;9.228;2023-02-14T11:05:34;20.20;;;12.60;;
10529;SDS011;5313;48.834;9.228;2023-02-14T11:08:12;23.50;;;13.77;;
10529;SDS011;5313;48.834;9.228;2023-02-14T11:10:39;22.57;;;13.23;;
10529;SDS011;5313;48.834;9.228;2023-02-14T11:13:25;19.03;;;12.97;;
10529;SDS011;5313;48.834;9.228;2023-02-14T11:15:52;20.57;;;13.57;;
10529;SDS011;5313;48.834;9.228;2023-02-14T11:18:21;21.20;;;13.03;;
10529;SDS011;5313;48.834;9.228;2023-02-14T11:20:58;21.73;;;14.13;;
10529;SDS011;5313;48.834;9.228;2023-02-14T11:23:37;18.93;;;12.83;;
10529;SDS011;5313;48.834;9.228;2023-02-14T11:28:54;20.30;;;12.97;;
10529;SDS011;5313;48.834;9.228;2023-02-14T11:31:26;19.70;;;13.17;;
10529;SDS011;5313;48.834;9.228;2023-02-14T11:33:54;21.10;;;13.93;;
10529;SDS011;5313;48.834;9.228;2023-02-14T11:36:21;22.47;;;13.60;;
10529;SDS011;5313;48.834;9.228;2023-02-14T11:38:53;19.87;;;12.60;;
10529;SDS011;5313;48.834;9.228;2023-02-14T11:41:22;20.70;;;13.37;;
10529;SDS011;5313;48.834;9.228;2023-02-14T11:43:48;18.60;;;12.87;;
10529;SDS011;5313;48.834;9.228;2023-02-14T11:51:23;18.53;;;13.13;;
10529;SDS011;5313;48.834;9.228;2023-02-14T11:53:55;19.97;;;13.27;;
10529;SDS011;5313;48.834;9.228;2023-02-14T11:56:24;19.73;;;13.33;;
10529;SDS011;5313;48.834;9.228;2023-02-14T11:59:28;21.30;;;13.93;;
10529;SDS011;5313;48.834;9.228;2023-02-14T12:02:29;19.33;;;12.90;;
10529;SDS011;5313;48.834;9.228;2023-02-14T12:05:18;18.30;;;12.37;;
10529;SDS011;5313;48.834;9.228;2023-02-14T12:07:48;22.20;;;13.23;;
10529;SDS011;5313;48.834;9.228;2023-02-14T12:10:28;19.03;;;12.83;;
10529;SDS011;5313;48.834;9.228;2023-02-14T12:15:24;17.83;;;12.93;;
10529;SDS011;5313;48.834;9.228;2023-02-14T12:31:42;23.67;;;13.77;;
10529;SDS011;5313;48.834;9.228;2023-02-14T12:34:09;20.57;;;13.50;;
10529;SDS011;5313;48.834;9.228;2023-02-14T12:36:44;21.17;;;13.53;;
10529;SDS011;5313;48.834;9.228;2023-02-14T12:39:19;21.57;;;13.33;;
10529;SDS011;5313;48.834;9.228;2023-02-14T12:42:08;19.37;;;13.53;;
10529;SDS011;5313;48.834;9.228;2023-02-14T12:47:59;20.00;;;13.53;;
10529;SDS011;5313;48.834;9.228;2023-02-14T12:50:32;20.17;;;13.47;;
10529;SDS011;5313;48.834;9.228;2023-02-14T12:55:48;19.87;;;14.03;;
10529;SDS011;5313;48.834;9.228;2023-02-14T12:58:36;21.60;;;14.57;;
10529;SDS011;5313;48.834;9.228;2023-02-14T13:01:44;21.80;;;14.00;;
10529;SDS011;5313;48.834;9.228;2023-02-14T13:04:45;20.67;;;14.03;;
10529;SDS011;5313;48.834;9.228;2023-02-14T13:10:22;20.07;;;13.83;;
10529;SDS011;5313;48.834;9.228;2023-02-14T13:15:40;23.53;;;14.07;;
10529;SDS011;5313;48.834;9.228;2023-02-14T13:18:30;18.63;;;13.13;;
10529;SDS011;5313;48.834;9.228;2023-02-14T13:21:19;21.17;;;13.57;;
10529;SDS011;5313;48.834;9.228;2023-02-14T13:23:50;20.87;;;13.77;;
10529;SDS011;5313;48.834;9.228;2023-02-14T13:26:30;21.43;;;13.77;;
10529;SDS011;5313;48.834;9.228;2023-02-14T13:29:03;24.60;;;13.37;;
10529;SDS011;5313;48.834;9.228;2023-02-14T13:31:50;19.03;;;13.40;;
10529;SDS011;5313;48.834;9.228;2023-02-14T13:34:29;19.43;;;13.33;;
10529;SDS011;5313;48.834;9.228;2023-02-14T13:36:59;21.47;;;13.60;;
10529;SDS011;5313;48.834;9.228;2023-02-14T13:39:37;21.73;;;13.70;;
10529;SDS011;5313;48.834;9.228;2023-02-14T13:42:10;19.33;;;13.33;;
10529;SDS011;5313;48.834;9.228;2023-02-14T13:44:44;20.17;;;13.30;;
10529;SDS011;5313;48.834;9.228;2023-02-14T13:47:15;19.43;;;13.17;;
10529;SDS011;5313;48.834;9.228;2023-02-14T13:49:55;20.07;;;13.33;;
10529;SDS011;5313;48.834;9.228;2023-02-14T13:55:19;19.83;;;13.73;;
10529;SDS011;5313;48.834;9.228;2023-02-14T13:58:00;20.60;;;12.93;;
10529;SDS011;5313;48.834;9.228;2023-02-14T14:03:06;18.97;;;13.17;;
10529;SDS011;5313;48.834;9.228;2023-02-14T14:06:08;17.07;;;12.57;;
10529;SDS011;5313;48.834;9.228;2023-02-14T14:16:32;18.40;;;12.87;;
10529;SDS011;5313;48.834;9.228;2023-02-14T14:21:41;20.93;;;13.50;;
10529;SDS011;5313;48.834;9.228;2023-02-14T14:24:14;24.63;;;13.63;;
10529;SDS011;5313;48.834;9.228;2023-02-14T14:26:44;19.90;;;14.00;;
10529;SDS011;5313;48.834;9.228;2023-02-14T14:29:21;20.70;;;13.50;;
10529;SDS011;5313;48.834;9.228;2023-02-14T14:31:49;20.63;;;13.30;;
10529;SDS011;5313;48.834;9.228;2023-02-14T14:34:19;22.47;;;13.50;;
10529;SDS011;5313;48.834;9.228;2023-02-14T14:36:48;21.97;;;14.30;;
10529;SDS011;5313;48.834;9.228;2023-02-14T14:39:27;19.17;;;13.67;;
10529;SDS011;5313;48.834;9.228;2023-02-14T14:41:55;20.77;;;13.07;;
10529;SDS011;5313;48.834;9.228;2023-02-14T14:44:28;23.23;;;13.90;;
10529;SDS011;5313;48.834;9.228;2023-02-14T14:46:57;24.70;;;13.50;;
10529;SDS011;5313;48.834;9.228;2023-02-14T14:49:23;19.67;;;14.20;;
10529;SDS011;5313;48.834;9.228;2023-02-14T14:51:50;20.23;;;13.43;;
10529;SDS011;5313;48.834;9.228;2023-02-14T14:54:17;21.23;;;13.67;;
10529;SDS011;5313;48.834;9.228;2023-02-14T14:56:52;21.00;;;14.23;;
10529;SDS011;5313;48.834;9.228;2023-02-14T14:59:29;19.80;;;13.30;;
10529;SDS011;5313;48.834;9.228;2023-02-14T15:01:59;21.97;;;13.23;;
10529;SDS011;5313;48.834;9.228;2023-02-14T15:04:31;19.77;;;13.70;;
10529;SDS011;5313;48.834;9.228;2023-02-14T15:07:18;18.97;;;13.73;;
10529;SDS011;5313;48.834;9.228;2023-02-14T15:09:52;18.47;;;13.20;;
10529;SDS011;5313;48.834;9.228;2023-02-14T15:12:19;20.27;;;13.80;;
10529;SDS011;5313;48.834;9.228;2023-02-14T15:15:06;19.63;;;13.43;;
10529;SDS011;5313;48.834;9.228;2023-02-14T15:17:34;22.00;;;14.20;;
10529;SDS011;5313;48.834;9.228;2023-02-14T15:20:06;31.20;;;14.63;;
10529;SDS011;5313;48.834;9.228;2023-02-14T15:22:41;23.97;;;14.80;;
10529;SDS011;5313;48.834;9.228;2023-02-14T15:25:10;20.80;;;14.23;;
10529;SDS011;5313;48.834;9.228;2023-02-14T15:27:40;23.03;;;14.17;;
10529;SDS011;5313;48.834;9.228;2023-02-14T15:30:08;22.47;;;15.33;;
10529;SDS011;5313;48.834;9.228;2023-02-14T15:32:48;21.93;;;14.63;;
10529;SDS011;5313;48.834;9.228;2023-02-14T15:35:15;20.77;;;13.70;;
10529;SDS011;5313;48.834;9.228;2023-02-14T15:37:44;23.73;;;14.40;;
10529;SDS011;5313;48.834;9.228;2023-02-14T15:40:23;18.57;;;13.20;;
10529;SDS011;5313;48.834;9.228;2023-02-14T15:42:52;22.80;;;15.30;;
10529;SDS011;5313;48.834;9.228;2023-02-14T15:45:28;19.67;;;13.60;;
10529;SDS011;5313;48.834;9.228;2023-02-14T15:48:02;23.10;;;14.43;;
10529;SDS011;5313;48.834;9.228;2023-02-14T15:50:34;21.00;;;13.80;;
10529;SDS011;5313;48.834;9.228;2023-02-14T15:56:20;20.97;;;13.57;;
10529;SDS011;5313;48.834;9.228;2023-02-14T15:58:49;25.13;;;15.33;;
10529;SDS011;5313;48.834;9.228;2023-02-14T16:01:30;22.20;;;14.30;;
10529;SDS011;5313;48.834;9.228;2023-02-14T16:03:58;23.50;;;14.30;;
10529;SDS011;5313;48.834;9.228;2023-02-14T16:06:30;23.73;;;14.60;;
10529;SDS011;5313;48.834;9.228;2023-02-14T16:09:02;23.17;;;14.77;;
10529;SDS011;5313;48.834;9.228;2023-02-14T16:11:33;23.23;;;14.73;;
10529;SDS011;5313;48.834;9.228;2023-02-14T16:14:23;20.57;;;14.13;;
10529;SDS011;5313;48.834;9.228;2023-02-14T16:17:06;20.10;;;13.50;;
10529;SDS011;5313;48.834;9.228;2023-02-14T16:19:42;22.50;;;14.40;;
10529;SDS011;5313;48.834;9.228;2023-02-14T16:22:09;20.23;;;13.43;;
10529;SDS011;5313;48.834;9.228;2023-02-14T16:24:37;24.33;;;14.43;;
10529;SDS011;5313;48.834;9.228;2023-02-14T16:27:04;20.07;;;14.33;;
10529;SDS011;5313;48.834;9.228;2023-02-14T16:29:33;22.73;;;14.73;;
10529;SDS011;5313;48.834;9.228;2023-02-14T16:32:06;23.17;;;15.30;;
10529;SDS011;5313;48.834;9.228;2023-02-14T16:34:36;21.00;;;14.03;;
10529;SDS011;5313;48.834;9.228;2023-02-14T16:37:16;23.77;;;14.83;;
10529;SDS011;5313;48.834;9.228;2023-02-14T16:39:47;21.60;;;14.87;;
10529;SDS011;5313;48.834;9.228;2023-02-14T16:42:15;24.80;;;15.60;;
10529;SDS011;5313;48.834;9.228;2023-02-14T16:44:42;22.03;;;15.00;;
10529;SDS011;5313;48.834;9.228;2023-02-14T16:47:11;23.67;;;15.03;;
10529;SDS011;5313;48.834;9.228;2023-02-14T16:49:38;25.10;;;15.13;;
10529;SDS011;5313;48.834;9.228;2023-02-14T16:52:04;21.87;;;14.47;;
10529;SDS011;5313;48.834;9.228;2023-02-14T16:54:30;23.97;;;15.13;;
10529;SDS011;5313;48.834;9.228;2023-02-14T16:56:57;24.17;;;14.83;;
10529;SDS011;5313;48.834;9.228;2023-02-14T16:59:26;24.93;;;15.57;;
10529;SDS011;5313;48.834;9.228;2023-02-14T17:01:51;29.80;;;15.50;;
10529;SDS011;5313;48.834;9.228;2023-02-14T17:04:17;23.60;;;15.50;;